KEED/EED METAR and TAF weather

Enter ICAO airport designator
Station Type Date Time Source
KEED METAR 2020/04/07 03:56 UTC NOAA

KEED 070356Z AUTO 18012KT 10SM CLR 20/04 A2990 RMK AO2 SLP106 T02000039


Station Type Date Time Source
KEED Decoded METAR 2020/04/07 03:56 UTC NOAA

NEEDLES AIRPORT, CA, United States (KEED) 34-46N 114-37W
Apr 06, 2020 - 11:56 PM EDT / 2020.04.07 0356 UTC
Wind: from the S (180 degrees) at 14 MPH (12 KT):0
Visibility: 10 mile(s):0
Sky conditions: clear
Temperature: 68.0 F (20.0 C)
Dew Point: 39.0 F (3.9 C)
Relative Humidity: 34%
Pressure (altimeter): 29.9 in. Hg (1012 hPa)
ob: KEED 070356Z AUTO 18012KT 10SM CLR 20/04 A2990 RMK AO2 SLP106 T02000039
cycle: 4

Station Type Date Time Source
KEED TAF 2020/04/06 18:22 UTC NOAA

TAF KEED 061720Z 0618/0718 21015G25KT P6SM SCT080 BKN200
FM070200 24011KT P6SM BKN080 BKN120
FM071200 24005KT P6SM VCSH BKN060

Example: see airport list